createdAt,value
2024-04-25T00:01:56.631Z,71.97
2024-04-25T00:04:27.543Z,72.01
2024-04-25T00:06:58.366Z,72.22
2024-04-25T00:09:29.147Z,72.05
2024-04-25T00:12:00.485Z,71.72
2024-04-25T00:14:31.390Z,71.99
2024-04-25T00:17:04.862Z,71.91
2024-04-25T00:19:35.751Z,71.93
2024-04-25T00:22:06.649Z,71.72
2024-04-25T00:24:37.602Z,71.73
2024-04-25T00:27:10.182Z,71.94
2024-04-25T00:29:42.698Z,71.71
2024-04-25T00:32:16.189Z,71.70
2024-04-25T00:34:47.001Z,71.98
2024-04-25T00:37:17.820Z,72.07
2024-04-25T00:39:48.561Z,71.93
2024-04-25T00:42:22.452Z,72.36
2024-04-25T00:44:53.820Z,72.29
2024-04-25T00:47:28.149Z,72.31
2024-04-25T00:49:59.523Z,72.34
2024-04-25T00:52:31.425Z,72.34
2024-04-25T00:55:05.811Z,72.25
2024-04-25T00:57:39.055Z,72.44
2024-04-25T01:00:12.392Z,72.41
2024-04-25T01:02:48.059Z,72.55
2024-04-25T01:05:19.762Z,72.61
2024-04-25T01:07:50.887Z,72.65
2024-04-25T01:10:21.612Z,72.73
2024-04-25T01:12:52.362Z,72.88
2024-04-25T01:15:23.114Z,72.96
2024-04-25T01:17:56.781Z,72.77
2024-04-25T01:20:27.575Z,73.05
2024-04-25T01:23:01.599Z,73.06
2024-04-25T01:25:36.155Z,73.37
2024-04-25T01:28:08.447Z,73.51
2024-04-25T01:30:40.772Z,73.70
2024-04-25T01:33:11.809Z,73.49
2024-04-25T01:35:42.992Z,73.88
2024-04-25T01:38:13.812Z,73.71
2024-04-25T01:40:47.233Z,73.97
2024-04-25T01:43:18.132Z,74.20
2024-04-25T01:45:48.888Z,74.38
2024-04-25T01:48:19.771Z,74.24
2024-04-25T01:50:50.927Z,74.48
2024-04-25T01:53:21.764Z,74.42
2024-04-25T01:55:55.176Z,74.72
2024-04-25T01:58:25.939Z,74.56
2024-04-25T02:00:56.893Z,74.80
2024-04-25T02:03:27.958Z,74.79
2024-04-25T02:05:58.949Z,75.08
2024-04-25T02:08:29.821Z,75.27
2024-04-25T02:11:03.691Z,75.26
2024-04-25T02:13:31.892Z,75.38
2024-04-25T02:16:02.750Z,75.32
2024-04-25T02:18:33.739Z,75.58
2024-04-25T02:21:20.587Z,75.57
2024-04-25T02:24:07.109Z,75.75
2024-04-25T02:26:40.611Z,75.62
2024-04-25T02:29:11.443Z,75.69
2024-04-25T02:31:43.101Z,75.63
2024-04-25T02:34:14.079Z,75.84
2024-04-25T02:36:44.819Z,75.66
2024-04-25T02:39:15.605Z,75.68
2024-04-25T02:41:49.020Z,75.63
2024-04-25T02:44:19.822Z,75.69
2024-04-25T02:46:47.845Z,75.59
2024-04-25T02:49:18.520Z,75.81
2024-04-25T02:51:46.694Z,75.72
2024-04-25T02:54:17.606Z,75.94
2024-04-25T02:56:48.390Z,75.68
2024-04-25T02:59:19.262Z,75.62
2024-04-25T03:01:47.399Z,75.32
2024-04-25T03:04:18.595Z,75.49
2024-04-25T03:06:46.792Z,75.30
2024-04-25T03:09:17.521Z,75.46
2024-04-25T03:11:48.596Z,75.34
2024-04-25T03:14:19.772Z,75.46
2024-04-25T03:16:47.922Z,75.42
2024-04-25T03:19:19.250Z,75.59
2024-04-25T03:21:47.413Z,75.49
2024-04-25T03:24:18.137Z,75.83
2024-04-25T03:26:49.041Z,75.77
2024-04-25T03:29:19.942Z,75.56
2024-04-25T03:31:51.784Z,75.54
2024-04-25T03:34:19.986Z,75.58
2024-04-25T03:36:54.047Z,75.60
2024-04-25T03:39:24.828Z,75.50
2024-04-25T03:41:58.284Z,75.49
2024-04-25T03:44:29.174Z,75.42
2024-04-25T03:47:00.449Z,75.59
2024-04-25T03:49:31.270Z,75.62
2024-04-25T03:52:02.099Z,75.48
2024-04-25T03:54:33.017Z,75.48
2024-04-25T03:57:06.509Z,75.13
2024-04-25T03:59:37.584Z,74.99
2024-04-25T04:02:08.461Z,75.09
2024-04-25T04:04:40.278Z,75.13
2024-04-25T04:07:11.066Z,74.88
2024-04-25T04:09:42.014Z,74.70
2024-04-25T04:12:15.535Z,74.57
2024-04-25T04:14:46.722Z,74.48
2024-04-25T04:17:17.706Z,74.31
2024-04-25T04:19:48.656Z,74.05
2024-04-25T04:22:19.421Z,74.40
2024-04-25T04:24:50.238Z,74.44
2024-04-25T04:27:23.683Z,74.59
2024-04-25T04:29:54.468Z,74.76
2024-04-25T04:32:25.258Z,75.14
2024-04-25T04:34:56.206Z,75.43
2024-04-25T04:37:26.970Z,75.93
2024-04-25T04:39:57.770Z,76.46
2024-04-25T04:42:31.198Z,77.16
2024-04-25T04:45:02.014Z,77.94
2024-04-25T04:47:35.651Z,78.72
2024-04-25T04:50:06.659Z,80.08
2024-04-25T04:52:37.388Z,80.92
2024-04-25T04:55:10.292Z,81.82
2024-04-25T04:57:43.691Z,82.37
2024-04-25T05:00:15.540Z,83.32
2024-04-25T05:02:46.334Z,84.29
2024-04-25T05:05:17.830Z,84.68
2024-04-25T05:07:49.437Z,85.38
2024-04-25T05:10:20.328Z,85.97
2024-04-25T05:12:53.703Z,86.41
2024-04-25T05:15:24.482Z,87.53
2024-04-25T05:17:56.441Z,88.20
2024-04-25T05:20:27.424Z,88.30
2024-04-25T05:22:58.212Z,89.11
2024-04-25T05:25:29.267Z,89.87
2024-04-25T05:28:02.652Z,90.54
2024-04-25T05:30:33.630Z,90.96
2024-04-25T05:33:05.103Z,91.68
2024-04-25T05:35:36.272Z,92.61
2024-04-25T05:38:07.338Z,93.06
2024-04-25T05:40:38.140Z,93.33
2024-04-25T05:43:13.919Z,94.04
2024-04-25T05:45:45.184Z,94.67
2024-04-25T05:48:16.090Z,95.57
2024-04-25T05:50:47.181Z,95.66
2024-04-25T05:53:19.452Z,96.07
2024-04-25T05:55:50.282Z,96.90
2024-04-25T05:58:23.690Z,97.43
2024-04-25T06:00:54.563Z,98.37
2024-04-25T06:03:25.401Z,98.28
2024-04-25T06:05:57.756Z,98.82
2024-04-25T06:08:28.537Z,99.38
2024-04-25T06:10:59.465Z,100.00
2024-04-25T06:13:33.852Z,100.00
2024-04-25T06:16:04.738Z,100.00
2024-04-25T06:18:35.578Z,100.00
2024-04-25T06:21:06.502Z,100.00
2024-04-25T06:23:41.533Z,100.00
2024-04-25T06:26:12.463Z,100.00
2024-04-25T06:28:45.909Z,100.00
2024-04-25T06:31:16.933Z,100.00
2024-04-25T06:33:47.687Z,100.00
2024-04-25T06:36:20.034Z,100.00
2024-04-25T06:38:50.824Z,100.00
2024-04-25T06:41:21.625Z,100.00
2024-04-25T06:43:58.360Z,100.00
2024-04-25T06:46:31.271Z,100.00
2024-04-25T06:49:02.165Z,100.00
2024-04-25T06:51:35.812Z,100.00
2024-04-25T06:54:06.623Z,100.00
2024-04-25T06:56:37.503Z,100.00
2024-04-25T06:59:11.033Z,100.00
2024-04-25T07:01:43.072Z,100.00
2024-04-25T07:04:13.793Z,100.00
2024-04-25T07:06:44.976Z,100.00
2024-04-25T07:09:15.757Z,100.00
2024-04-25T07:11:46.577Z,100.00
2024-04-25T07:14:20.332Z,100.00
2024-04-25T07:16:51.337Z,100.00
2024-04-25T07:19:22.182Z,100.00
2024-04-25T07:21:53.040Z,100.00
2024-04-25T07:24:23.802Z,100.00
2024-04-25T07:26:54.539Z,100.00
2024-04-25T07:29:28.101Z,100.00
2024-04-25T07:31:59.703Z,100.00
2024-04-25T07:34:30.661Z,100.00
2024-04-25T07:37:01.606Z,100.00
2024-04-25T07:39:32.484Z,100.00
2024-04-25T07:42:03.320Z,100.00
2024-04-25T07:44:37.083Z,100.00
2024-04-25T07:47:09.697Z,100.00
2024-04-25T07:49:40.426Z,100.00
2024-04-25T07:52:11.213Z,100.00
2024-04-25T07:54:41.960Z,100.00
2024-04-25T07:57:12.718Z,100.00
2024-04-25T07:59:46.457Z,100.00
2024-04-25T08:02:17.377Z,100.00
2024-04-25T08:04:48.203Z,100.00
2024-04-25T08:07:19.374Z,100.00
2024-04-25T08:09:50.112Z,100.00
2024-04-25T08:12:21.781Z,100.00
2024-04-25T08:14:55.242Z,100.00
2024-04-25T08:17:26.454Z,100.00
2024-04-25T08:19:57.191Z,100.00
2024-04-25T08:22:31.691Z,100.00
2024-04-25T08:25:02.450Z,100.00
2024-04-25T08:27:33.622Z,100.00
2024-04-25T08:30:07.417Z,100.00
2024-04-25T08:32:38.368Z,100.00
2024-04-25T08:35:10.040Z,100.00
2024-04-25T08:37:40.973Z,100.00
2024-04-25T08:40:13.090Z,100.00
2024-04-25T08:42:51.281Z,100.00
2024-04-25T08:45:27.418Z,100.00
2024-04-25T08:48:01.337Z,100.00
2024-04-25T08:50:33.597Z,100.00
2024-04-25T08:53:06.155Z,100.00
2024-04-25T08:55:38.603Z,100.00
2024-04-25T08:58:09.612Z,100.00
2024-04-25T09:00:43.578Z,100.00
2024-04-25T09:03:18.837Z,100.00
2024-04-25T09:05:49.873Z,100.00
2024-04-25T09:08:22.147Z,100.00
2024-04-25T09:10:53.618Z,100.00
2024-04-25T09:13:24.439Z,100.00
2024-04-25T09:15:58.232Z,100.00
2024-04-25T09:18:29.518Z,100.00
2024-04-25T09:21:00.423Z,100.00
2024-04-25T09:23:31.313Z,100.00
2024-04-25T09:26:02.098Z,100.00
2024-04-25T09:28:37.261Z,100.00
2024-04-25T09:31:13.230Z,100.00
2024-04-25T09:33:44.151Z,100.00
2024-04-25T09:36:15.772Z,100.00
2024-04-25T09:38:46.936Z,100.00
2024-04-25T09:41:18.453Z,100.00
2024-04-25T09:43:49.602Z,100.00
2024-04-25T09:46:27.516Z,100.00
2024-04-25T09:49:01.059Z,100.00
2024-04-25T09:51:35.184Z,100.00
2024-04-25T09:54:12.417Z,100.00
2024-04-25T09:56:43.473Z,100.00
2024-04-25T09:59:23.224Z,100.00
2024-04-25T10:01:58.352Z,100.00
2024-04-25T10:04:34.527Z,100.00
2024-04-25T10:07:07.889Z,100.00
2024-04-25T10:09:39.832Z,100.00
2024-04-25T10:12:11.686Z,100.00
2024-04-25T10:14:43.137Z,100.00
2024-04-25T10:17:27.178Z,100.00
2024-04-25T10:19:58.362Z,100.00
2024-04-25T10:22:32.429Z,100.00
2024-04-25T10:25:06.372Z,100.00
2024-04-25T10:27:37.523Z,100.00
2024-04-25T10:30:11.316Z,100.00
2024-04-25T10:32:44.882Z,100.00
2024-04-25T10:35:17.121Z,100.00
2024-04-25T10:37:49.597Z,100.00
2024-04-25T10:40:22.130Z,100.00
2024-04-25T10:43:04.798Z,100.00
2024-04-25T10:45:38.034Z,100.00
2024-04-25T10:48:12.709Z,100.00
2024-04-25T10:50:43.964Z,100.00
2024-04-25T10:53:14.907Z,100.00
2024-04-25T10:55:45.998Z,100.00
2024-04-25T10:58:17.350Z,100.00
2024-04-25T11:00:49.096Z,100.00
2024-04-25T11:03:22.604Z,100.00
2024-04-25T11:05:53.824Z,100.00
2024-04-25T11:08:24.641Z,100.00
2024-04-25T11:10:57.172Z,100.00
2024-04-25T11:13:28.039Z,100.00
2024-04-25T11:15:59.653Z,100.00
2024-04-25T11:18:35.445Z,100.00
2024-04-25T11:21:07.011Z,100.00
2024-04-25T11:23:38.097Z,100.00
2024-04-25T11:26:09.172Z,100.00
2024-04-25T11:28:41.309Z,100.00
2024-04-25T11:31:12.311Z,100.00
2024-04-25T11:33:46.235Z,100.00
2024-04-25T11:36:29.355Z,100.00
2024-04-25T11:39:04.919Z,100.00
2024-04-25T11:41:36.047Z,100.00
2024-04-25T11:44:08.660Z,100.00
2024-04-25T11:46:40.120Z,100.00
2024-04-25T11:49:13.654Z,100.00
2024-04-25T11:51:44.518Z,100.00
2024-04-25T11:54:15.294Z,100.00
2024-04-25T11:56:46.299Z,100.00
2024-04-25T11:59:17.304Z,100.00
2024-04-25T12:01:50.089Z,100.00
2024-04-25T12:04:25.129Z,100.00
2024-04-25T12:06:56.108Z,100.00
2024-04-25T12:09:27.017Z,100.00
2024-04-25T12:11:59.048Z,100.00
2024-04-25T12:14:30.006Z,100.00
2024-04-25T12:17:00.837Z,100.00
2024-04-25T12:19:34.625Z,100.00
2024-04-25T12:22:05.456Z,100.00
2024-04-25T12:24:36.218Z,100.00
2024-04-25T12:27:04.397Z,100.00
2024-04-25T12:29:35.137Z,100.00
2024-04-25T12:32:08.252Z,100.00
2024-04-25T12:34:41.867Z,100.00
2024-04-25T12:37:12.587Z,100.00
2024-04-25T12:39:43.580Z,100.00
2024-04-25T12:42:14.483Z,100.00
2024-04-25T12:44:45.384Z,100.00
2024-04-25T12:47:16.577Z,100.00
2024-04-25T12:49:50.270Z,100.00
2024-04-25T12:52:20.982Z,100.00
2024-04-25T12:54:51.848Z,100.00
2024-04-25T12:57:25.292Z,100.00
2024-04-25T12:59:56.586Z,100.00
2024-04-25T13:02:27.493Z,100.00
2024-04-25T13:05:00.943Z,100.00
2024-04-25T13:07:31.860Z,100.00
2024-04-25T13:10:02.655Z,100.00
2024-04-25T13:12:34.605Z,100.00
2024-04-25T13:15:05.525Z,100.00
2024-04-25T13:17:38.055Z,100.00
2024-04-25T13:20:13.518Z,100.00
2024-04-25T13:22:44.314Z,100.00
2024-04-25T13:25:15.134Z,100.00
2024-04-25T13:27:45.908Z,100.00
2024-04-25T13:30:16.663Z,100.00
2024-04-25T13:32:50.573Z,100.00
2024-04-25T13:35:26.064Z,100.00
2024-04-25T13:38:00.337Z,100.00
2024-04-25T13:40:33.459Z,100.00
2024-04-25T13:43:04.235Z,100.00
2024-04-25T13:45:35.185Z,100.00
2024-04-25T13:48:06.969Z,100.00
2024-04-25T13:50:40.686Z,100.00
2024-04-25T13:53:13.330Z,100.00
2024-04-25T13:55:44.316Z,100.00
2024-04-25T13:58:17.521Z,100.00
2024-04-25T14:00:48.921Z,100.00
2024-04-25T14:03:19.851Z,100.00
2024-04-25T14:05:53.463Z,100.00
2024-04-25T14:08:24.331Z,100.00
2024-04-25T14:10:55.191Z,100.00
2024-04-25T14:13:26.146Z,100.00
2024-04-25T14:15:57.204Z,100.00
2024-04-25T14:18:28.752Z,100.00
2024-04-25T14:21:02.375Z,100.00
2024-04-25T14:23:33.388Z,100.00
2024-04-25T14:26:19.988Z,100.00
2024-04-25T14:28:54.289Z,100.00
2024-04-25T14:31:25.124Z,100.00
2024-04-25T14:33:56.047Z,100.00
2024-04-25T14:36:29.654Z,100.00
2024-04-25T14:39:00.602Z,100.00
2024-04-25T14:41:31.388Z,100.00
2024-04-25T14:44:10.248Z,100.00
2024-04-25T14:46:42.000Z,100.00
2024-04-25T14:49:12.784Z,100.00
2024-04-25T14:51:46.193Z,100.00
2024-04-25T14:54:17.045Z,100.00
2024-04-25T14:56:47.883Z,100.00
2024-04-25T14:59:18.850Z,100.00
2024-04-25T15:01:53.260Z,100.00
2024-04-25T15:04:24.083Z,100.00
2024-04-25T15:06:57.580Z,100.00
2024-04-25T15:09:28.367Z,100.00
2024-04-25T15:12:07.069Z,100.00
2024-04-25T15:14:39.226Z,100.00
2024-04-25T15:17:10.995Z,100.00
2024-04-25T15:19:45.668Z,100.00
2024-04-25T15:22:19.270Z,100.00
2024-04-25T15:24:50.026Z,100.00
2024-04-25T15:27:21.349Z,100.00
2024-04-25T15:29:52.160Z,100.00
2024-04-25T15:32:23.003Z,100.00
2024-04-25T15:34:53.986Z,100.00
2024-04-25T15:37:27.558Z,100.00
2024-04-25T15:39:58.703Z,100.00
2024-04-25T15:42:29.534Z,100.00
2024-04-25T15:45:00.263Z,100.00
2024-04-25T15:47:31.352Z,100.00
2024-04-25T15:50:02.286Z,100.00
2024-04-25T15:52:36.811Z,100.00
2024-04-25T15:55:07.926Z,100.00
2024-04-25T15:57:38.715Z,100.00
2024-04-25T16:00:11.104Z,100.00
2024-04-25T16:02:42.177Z,100.00
2024-04-25T16:05:12.971Z,100.00
2024-04-25T16:07:46.614Z,100.00
2024-04-25T16:10:17.508Z,100.00
2024-04-25T16:12:49.518Z,100.00
2024-04-25T16:15:20.732Z,100.00
2024-04-25T16:17:51.572Z,100.00
2024-04-25T16:20:22.408Z,100.00
2024-04-25T16:22:56.396Z,100.00
2024-04-25T16:25:27.258Z,100.00
2024-04-25T16:27:58.168Z,100.00
2024-04-25T16:30:28.923Z,100.00
2024-04-25T16:33:00.590Z,100.00
2024-04-25T16:35:32.708Z,100.00
2024-04-25T16:38:06.305Z,100.00
2024-04-25T16:40:37.038Z,100.00
2024-04-25T16:43:09.211Z,100.00
2024-04-25T16:45:41.029Z,100.00
2024-04-25T16:48:12.739Z,100.00
2024-04-25T16:50:43.620Z,100.00
2024-04-25T16:53:17.374Z,100.00
2024-04-25T16:55:48.371Z,100.00
2024-04-25T16:58:19.173Z,100.00
2024-04-25T17:00:50.557Z,100.00
2024-04-25T17:03:23.032Z,100.00
2024-04-25T17:05:53.944Z,100.00
2024-04-25T17:08:28.263Z,100.00
2024-04-25T17:10:59.114Z,100.00
2024-04-25T17:13:30.025Z,100.00
2024-04-25T17:16:00.955Z,100.00
2024-04-25T17:18:31.863Z,100.00
2024-04-25T17:21:07.609Z,100.00
2024-04-25T17:23:41.264Z,100.00
2024-04-25T17:26:12.405Z,100.00
2024-04-25T17:28:43.205Z,100.00
2024-04-25T17:31:14.019Z,100.00
2024-04-25T17:33:44.938Z,100.00
2024-04-25T17:36:16.162Z,100.00
2024-04-25T17:38:50.252Z,100.00
2024-04-25T17:41:21.160Z,100.00
2024-04-25T17:43:52.033Z,100.00
2024-04-25T17:46:22.815Z,100.00
2024-04-25T17:48:54.507Z,100.00
2024-04-25T17:51:27.041Z,100.00
2024-04-25T17:54:00.536Z,100.00
2024-04-25T17:56:31.302Z,100.00
2024-04-25T17:59:02.163Z,100.00
2024-04-25T18:01:33.210Z,100.00
2024-04-25T18:04:04.041Z,100.00
2024-04-25T18:06:34.784Z,100.00
2024-04-25T18:09:09.180Z,100.00
2024-04-25T18:11:39.971Z,100.00
2024-04-25T18:14:10.934Z,100.00
2024-04-25T18:16:41.969Z,100.00
2024-04-25T18:19:13.034Z,100.00
2024-04-25T18:21:43.816Z,100.00
2024-04-25T18:24:18.905Z,100.00
2024-04-25T18:26:50.233Z,100.00
2024-04-25T18:29:21.219Z,100.00
2024-04-25T18:31:52.199Z,100.00
2024-04-25T18:34:22.998Z,100.00
2024-04-25T18:36:53.759Z,100.00
2024-04-25T18:39:27.225Z,100.00
2024-04-25T18:41:55.347Z,100.00
2024-04-25T18:44:26.185Z,100.00
2024-04-25T18:46:56.999Z,100.00
2024-04-25T18:49:27.840Z,100.00
2024-04-25T18:52:00.116Z,100.00
2024-04-25T18:54:33.946Z,100.00
2024-04-25T18:57:04.710Z,100.00
2024-04-25T18:59:36.787Z,100.00
2024-04-25T19:02:07.865Z,100.00
2024-04-25T19:04:39.270Z,100.00
2024-04-25T19:07:10.124Z,100.00
2024-04-25T19:09:43.639Z,100.00
2024-04-25T19:12:16.086Z,100.00
2024-04-25T19:14:51.252Z,100.00
2024-04-25T19:17:23.723Z,100.00
2024-04-25T19:19:54.662Z,100.00
2024-04-25T19:22:29.844Z,100.00
2024-04-25T19:25:03.313Z,100.00
2024-04-25T19:27:34.134Z,100.00
2024-04-25T19:30:05.042Z,100.00
2024-04-25T19:32:36.567Z,100.00
2024-04-25T19:35:07.795Z,100.00
2024-04-25T19:37:38.518Z,100.00
2024-04-25T19:40:13.160Z,100.00
2024-04-25T19:42:44.085Z,100.00
2024-04-25T19:45:14.923Z,100.00
2024-04-25T19:47:45.878Z,100.00
2024-04-25T19:50:17.193Z,100.00
2024-04-25T19:52:49.926Z,100.00
2024-04-25T19:55:23.376Z,100.00
2024-04-25T19:57:54.238Z,100.00
2024-04-25T20:00:25.545Z,100.00
2024-04-25T20:02:56.396Z,100.00
2024-04-25T20:05:27.803Z,100.00
2024-04-25T20:07:58.621Z,100.00
2024-04-25T20:10:35.403Z,100.00
2024-04-25T20:13:06.198Z,100.00
2024-04-25T20:15:37.115Z,100.00
2024-04-25T20:18:24.626Z,100.00
2024-04-25T20:21:07.838Z,100.00
2024-04-25T20:23:40.161Z,100.00
2024-04-25T20:26:15.306Z,100.00
2024-04-25T20:28:46.103Z,100.00
2024-04-25T20:31:19.425Z,100.00
2024-04-25T20:33:50.771Z,100.00
2024-04-25T20:36:22.870Z,100.00
2024-04-25T20:38:55.469Z,100.00
2024-04-25T20:41:29.212Z,100.00
2024-04-25T20:44:00.055Z,100.00
2024-04-25T20:46:30.797Z,100.00
2024-04-25T20:49:01.612Z,100.00
2024-04-25T20:51:33.174Z,100.00
2024-04-25T20:54:05.497Z,100.00
2024-04-25T20:56:43.909Z,100.00
2024-04-25T20:59:14.374Z,100.00
2024-04-25T21:01:45.684Z,100.00
2024-04-25T21:04:16.443Z,100.00
2024-04-25T21:06:48.425Z,100.00
2024-04-25T21:09:20.415Z,100.00
2024-04-25T21:11:53.949Z,100.00
2024-04-25T21:14:25.174Z,100.00
2024-04-25T21:16:56.009Z,100.00
2024-04-25T21:19:27.174Z,100.00
2024-04-25T21:21:58.350Z,100.00
2024-04-25T21:24:29.619Z,100.00
2024-04-25T21:27:03.074Z,100.00
2024-04-25T21:29:34.189Z,100.00
2024-04-25T21:32:04.954Z,100.00
2024-04-25T21:34:35.746Z,100.00
2024-04-25T21:37:06.505Z,100.00
2024-04-25T21:39:37.319Z,100.00
2024-04-25T21:42:11.361Z,100.00
2024-04-25T21:44:39.639Z,100.00
2024-04-25T21:47:10.640Z,100.00
2024-04-25T21:49:41.387Z,100.00
2024-04-25T21:52:12.149Z,100.00
2024-04-25T21:54:43.101Z,100.00
2024-04-25T21:57:18.959Z,100.00
2024-04-25T21:59:47.526Z,100.00
2024-04-25T22:02:18.312Z,100.00
2024-04-25T22:04:49.204Z,100.00
2024-04-25T22:07:19.922Z,100.00
2024-04-25T22:09:50.922Z,100.00
2024-04-25T22:12:24.624Z,100.00
2024-04-25T22:14:55.643Z,100.00
2024-04-25T22:17:26.533Z,100.00
2024-04-25T22:19:57.717Z,100.00
2024-04-25T22:22:28.571Z,100.00
2024-04-25T22:24:59.352Z,100.00
2024-04-25T22:27:32.856Z,100.00
2024-04-25T22:30:03.752Z,100.00
2024-04-25T22:32:34.813Z,100.00
2024-04-25T22:35:05.740Z,100.00
2024-04-25T22:37:33.957Z,100.00
2024-04-25T22:40:05.110Z,100.00
2024-04-25T22:42:38.652Z,100.00
2024-04-25T22:45:15.631Z,100.00
2024-04-25T22:47:50.119Z,100.00
2024-04-25T22:50:21.069Z,100.00
2024-04-25T22:52:51.911Z,100.00
2024-04-25T22:55:22.680Z,100.00
2024-04-25T22:57:56.107Z,100.00
2024-04-25T23:00:28.933Z,100.00
2024-04-25T23:03:00.012Z,100.00
2024-04-25T23:05:37.424Z,100.00
2024-04-25T23:08:08.856Z,100.00
2024-04-25T23:10:39.599Z,100.00
2024-04-25T23:13:13.175Z,100.00
2024-04-25T23:15:43.925Z,100.00
2024-04-25T23:18:15.004Z,100.00
2024-04-25T23:20:46.381Z,100.00
2024-04-25T23:23:17.242Z,100.00
2024-04-25T23:25:48.025Z,100.00
2024-04-25T23:28:21.584Z,100.00
2024-04-25T23:30:52.396Z,100.00
2024-04-25T23:33:23.647Z,100.00
2024-04-25T23:35:54.726Z,100.00
2024-04-25T23:38:25.687Z,100.00
2024-04-25T23:40:56.441Z,100.00
2024-04-25T23:43:30.351Z,100.00
2024-04-25T23:46:01.114Z,100.00
2024-04-25T23:48:31.979Z,100.00
2024-04-25T23:51:05.277Z,100.00
2024-04-25T23:53:36.272Z,100.00
2024-04-25T23:56:07.230Z,100.00
2024-04-25T23:58:42.270Z,100.00
